sensor_id;sensor_type;location;lat;lon;timestamp;temperature;humidity
55492;DHT22;41354;52.990;6.878;2022-09-09T00:02:05;13.00;99.90
55492;DHT22;41354;52.990;6.878;2022-09-09T00:04:37;13.00;99.90
55492;DHT22;41354;52.990;6.878;2022-09-09T00:07:18;13.00;99.90
55492;DHT22;41354;52.990;6.878;2022-09-09T00:10:24;12.90;99.90
55492;DHT22;41354;52.990;6.878;2022-09-09T00:13:22;12.90;99.90
55492;DHT22;41354;52.990;6.878;2022-09-09T00:16:00;12.90;99.90
55492;DHT22;41354;52.990;6.878;2022-09-09T00:21:05;12.80;99.90
55492;DHT22;41354;52.990;6.878;2022-09-09T00:23:38;12.80;99.90
55492;DHT22;41354;52.990;6.878;2022-09-09T00:26:38;12.80;99.90
55492;DHT22;41354;52.990;6.878;2022-09-09T00:29:21;12.80;99.90
55492;DHT22;41354;52.990;6.878;2022-09-09T00:31:49;12.80;99.90
55492;DHT22;41354;52.990;6.878;2022-09-09T00:34:23;12.80;99.90
55492;DHT22;41354;52.990;6.878;2022-09-09T00:36:52;12.90;99.90
55492;DHT22;41354;52.990;6.878;2022-09-09T00:39:37;12.90;99.90
55492;DHT22;41354;52.990;6.878;2022-09-09T00:45:10;12.90;99.90
55492;DHT22;41354;52.990;6.878;2022-09-09T00:47:53;12.90;99.90
55492;DHT22;41354;52.990;6.878;2022-09-09T00:55:49;12.90;99.90
55492;DHT22;41354;52.990;6.878;2022-09-09T00:58:19;12.90;99.90
55492;DHT22;41354;52.990;6.878;2022-09-09T01:00:51;12.90;99.90
55492;DHT22;41354;52.990;6.878;2022-09-09T01:03:35;12.90;99.90
55492;DHT22;41354;52.990;6.878;2022-09-09T01:17:26;12.90;99.90
55492;DHT22;41354;52.990;6.878;2022-09-09T01:20:17;12.90;99.90
55492;DHT22;41354;52.990;6.878;2022-09-09T01:23:14;12.90;99.90
55492;DHT22;41354;52.990;6.878;2022-09-09T01:28:50;12.90;99.90
55492;DHT22;41354;52.990;6.878;2022-09-09T01:31:41;12.80;99.90
55492;DHT22;41354;52.990;6.878;2022-09-09T01:34:14;12.80;99.90
55492;DHT22;41354;52.990;6.878;2022-09-09T01:37:01;12.70;99.90
55492;DHT22;41354;52.990;6.878;2022-09-09T01:39:28;12.70;99.90
55492;DHT22;41354;52.990;6.878;2022-09-09T01:41:55;12.70;99.90
55492;DHT22;41354;52.990;6.878;2022-09-09T01:44:21;12.70;99.90
55492;DHT22;41354;52.990;6.878;2022-09-09T01:46:47;12.80;99.90
55492;DHT22;41354;52.990;6.878;2022-09-09T01:49:13;12.90;99.90
55492;DHT22;41354;52.990;6.878;2022-09-09T01:51:39;13.00;99.90
55492;DHT22;41354;52.990;6.878;2022-09-09T01:54:06;13.10;99.90
55492;DHT22;41354;52.990;6.878;2022-09-09T01:56:43;13.10;99.90
55492;DHT22;41354;52.990;6.878;2022-09-09T02:02:09;13.20;99.90
55492;DHT22;41354;52.990;6.878;2022-09-09T02:04:49;13.30;99.90
55492;DHT22;41354;52.990;6.878;2022-09-09T02:07:42;13.40;99.90
55492;DHT22;41354;52.990;6.878;2022-09-09T02:10:12;13.40;99.90
55492;DHT22;41354;52.990;6.878;2022-09-09T02:12:43;13.50;99.90
55492;DHT22;41354;52.990;6.878;2022-09-09T02:15:22;13.60;99.90
55492;DHT22;41354;52.990;6.878;2022-09-09T02:17:50;13.60;99.90
55492;DHT22;41354;52.990;6.878;2022-09-09T02:20:18;13.60;99.90
55492;DHT22;41354;52.990;6.878;2022-09-09T02:22:46;13.70;99.90
55492;DHT22;41354;52.990;6.878;2022-09-09T02:25:17;13.70;99.90
55492;DHT22;41354;52.990;6.878;2022-09-09T02:27:45;13.80;99.90
55492;DHT22;41354;52.990;6.878;2022-09-09T02:30:13;13.90;99.90
55492;DHT22;41354;52.990;6.878;2022-09-09T02:32:41;13.90;99.90
55492;DHT22;41354;52.990;6.878;2022-09-09T02:35:13;13.90;99.90
55492;DHT22;41354;52.990;6.878;2022-09-09T02:37:41;14.00;99.90
55492;DHT22;41354;52.990;6.878;2022-09-09T02:40:10;14.00;99.90
55492;DHT22;41354;52.990;6.878;2022-09-09T02:42:44;14.10;99.90
55492;DHT22;41354;52.990;6.878;2022-09-09T02:45:12;14.10;99.90
55492;DHT22;41354;52.990;6.878;2022-09-09T02:50:15;14.20;99.90
55492;DHT22;41354;52.990;6.878;2022-09-09T02:55:48;14.30;99.90
55492;DHT22;41354;52.990;6.878;2022-09-09T02:58:17;14.30;99.90
55492;DHT22;41354;52.990;6.878;2022-09-09T03:00:47;14.40;99.90
55492;DHT22;41354;52.990;6.878;2022-09-09T03:03:14;14.30;99.90
55492;DHT22;41354;52.990;6.878;2022-09-09T03:05:41;14.40;99.90
55492;DHT22;41354;52.990;6.878;2022-09-09T03:08:07;14.40;99.90
55492;DHT22;41354;52.990;6.878;2022-09-09T03:10:33;14.40;99.90
55492;DHT22;41354;52.990;6.878;2022-09-09T03:12:59;14.40;99.90
55492;DHT22;41354;52.990;6.878;2022-09-09T03:15:24;14.40;99.90
55492;DHT22;41354;52.990;6.878;2022-09-09T03:17:54;14.40;99.90
55492;DHT22;41354;52.990;6.878;2022-09-09T03:20:20;14.40;99.90
55492;DHT22;41354;52.990;6.878;2022-09-09T03:22:46;14.40;99.90
55492;DHT22;41354;52.990;6.878;2022-09-09T03:25:11;14.40;99.90
55492;DHT22;41354;52.990;6.878;2022-09-09T03:27:37;14.40;99.90
55492;DHT22;41354;52.990;6.878;2022-09-09T03:30:02;14.40;99.90
55492;DHT22;41354;52.990;6.878;2022-09-09T03:32:28;14.40;99.90
55492;DHT22;41354;52.990;6.878;2022-09-09T03:34:54;14.40;99.90
55492;DHT22;41354;52.990;6.878;2022-09-09T03:37:20;14.40;99.90
55492;DHT22;41354;52.990;6.878;2022-09-09T03:39:45;14.40;99.90
55492;DHT22;41354;52.990;6.878;2022-09-09T03:42:15;14.30;99.90
55492;DHT22;41354;52.990;6.878;2022-09-09T03:44:44;14.30;99.90
55492;DHT22;41354;52.990;6.878;2022-09-09T03:47:18;14.40;99.90
55492;DHT22;41354;52.990;6.878;2022-09-09T03:49:44;14.40;99.90
55492;DHT22;41354;52.990;6.878;2022-09-09T03:52:10;14.30;99.90
55492;DHT22;41354;52.990;6.878;2022-09-09T03:54:35;14.40;99.90
55492;DHT22;41354;52.990;6.878;2022-09-09T03:57:01;14.30;99.90
55492;DHT22;41354;52.990;6.878;2022-09-09T03:59:27;14.40;99.90
55492;DHT22;41354;52.990;6.878;2022-09-09T04:01:53;14.30;99.90
55492;DHT22;41354;52.990;6.878;2022-09-09T04:04:20;14.30;99.90
55492;DHT22;41354;52.990;6.878;2022-09-09T04:06:46;14.40;99.90
55492;DHT22;41354;52.990;6.878;2022-09-09T04:09:12;14.30;99.90
55492;DHT22;41354;52.990;6.878;2022-09-09T04:11:37;14.30;99.90
55492;DHT22;41354;52.990;6.878;2022-09-09T04:14:03;14.30;99.90
55492;DHT22;41354;52.990;6.878;2022-09-09T04:16:31;14.30;99.90
55492;DHT22;41354;52.990;6.878;2022-09-09T04:18:58;14.30;99.90
55492;DHT22;41354;52.990;6.878;2022-09-09T04:21:25;14.30;99.90
55492;DHT22;41354;52.990;6.878;2022-09-09T04:23:50;14.30;99.90
55492;DHT22;41354;52.990;6.878;2022-09-09T04:26:17;14.20;99.90
55492;DHT22;41354;52.990;6.878;2022-09-09T04:28:42;14.20;99.90
55492;DHT22;41354;52.990;6.878;2022-09-09T04:31:10;14.20;99.90
55492;DHT22;41354;52.990;6.878;2022-09-09T04:33:38;14.20;99.90
55492;DHT22;41354;52.990;6.878;2022-09-09T04:36:04;14.20;99.90
55492;DHT22;41354;52.990;6.878;2022-09-09T04:38:30;14.20;99.90
55492;DHT22;41354;52.990;6.878;2022-09-09T04:40:56;14.20;99.90
55492;DHT22;41354;52.990;6.878;2022-09-09T04:43:22;14.20;99.90
55492;DHT22;41354;52.990;6.878;2022-09-09T04:45:49;14.20;99.90
55492;DHT22;41354;52.990;6.878;2022-09-09T04:48:16;14.20;99.90
55492;DHT22;41354;52.990;6.878;2022-09-09T04:50:42;14.20;99.90
55492;DHT22;41354;52.990;6.878;2022-09-09T04:53:07;14.20;99.90
55492;DHT22;41354;52.990;6.878;2022-09-09T04:55:33;14.10;99.90
55492;DHT22;41354;52.990;6.878;2022-09-09T04:58:07;14.10;99.90
55492;DHT22;41354;52.990;6.878;2022-09-09T05:00:34;14.10;99.90
55492;DHT22;41354;52.990;6.878;2022-09-09T05:03:04;14.10;99.90
55492;DHT22;41354;52.990;6.878;2022-09-09T05:05:31;14.20;99.90
55492;DHT22;41354;52.990;6.878;2022-09-09T05:08:07;14.10;99.90
55492;DHT22;41354;52.990;6.878;2022-09-09T05:10:36;14.10;99.90
55492;DHT22;41354;52.990;6.878;2022-09-09T05:13:01;14.10;99.90
55492;DHT22;41354;52.990;6.878;2022-09-09T05:15:27;14.10;99.90
55492;DHT22;41354;52.990;6.878;2022-09-09T05:17:57;14.10;99.90
55492;DHT22;41354;52.990;6.878;2022-09-09T05:20:22;14.10;99.90
55492;DHT22;41354;52.990;6.878;2022-09-09T05:22:55;14.10;99.90
55492;DHT22;41354;52.990;6.878;2022-09-09T05:25:22;14.10;99.90
55492;DHT22;41354;52.990;6.878;2022-09-09T05:27:49;14.10;99.90
55492;DHT22;41354;52.990;6.878;2022-09-09T05:30:15;14.10;99.90
55492;DHT22;41354;52.990;6.878;2022-09-09T05:32:41;14.10;99.90
55492;DHT22;41354;52.990;6.878;2022-09-09T05:35:06;14.10;99.90
55492;DHT22;41354;52.990;6.878;2022-09-09T05:37:32;14.20;99.90
55492;DHT22;41354;52.990;6.878;2022-09-09T05:39:58;14.20;99.90
55492;DHT22;41354;52.990;6.878;2022-09-09T05:42:23;14.20;99.90
55492;DHT22;41354;52.990;6.878;2022-09-09T05:44:49;14.20;99.90
55492;DHT22;41354;52.990;6.878;2022-09-09T05:47:16;14.20;99.90
55492;DHT22;41354;52.990;6.878;2022-09-09T05:49:42;14.30;99.90
55492;DHT22;41354;52.990;6.878;2022-09-09T05:52:08;14.30;99.90
55492;DHT22;41354;52.990;6.878;2022-09-09T05:54:35;14.30;99.90
55492;DHT22;41354;52.990;6.878;2022-09-09T05:57:01;14.30;99.90
55492;DHT22;41354;52.990;6.878;2022-09-09T05:59:26;14.30;99.90
55492;DHT22;41354;52.990;6.878;2022-09-09T06:01:53;14.40;99.90
55492;DHT22;41354;52.990;6.878;2022-09-09T06:04:19;14.40;99.90
55492;DHT22;41354;52.990;6.878;2022-09-09T06:06:47;14.40;99.90
55492;DHT22;41354;52.990;6.878;2022-09-09T06:09:14;14.40;99.90
55492;DHT22;41354;52.990;6.878;2022-09-09T06:11:40;14.50;99.90
55492;DHT22;41354;52.990;6.878;2022-09-09T06:14:06;14.50;99.90
55492;DHT22;41354;52.990;6.878;2022-09-09T06:16:33;14.60;99.90
55492;DHT22;41354;52.990;6.878;2022-09-09T06:18:59;14.60;99.90
55492;DHT22;41354;52.990;6.878;2022-09-09T06:21:36;14.70;99.90
55492;DHT22;41354;52.990;6.878;2022-09-09T06:24:02;14.70;99.90
55492;DHT22;41354;52.990;6.878;2022-09-09T06:26:31;14.70;99.90
55492;DHT22;41354;52.990;6.878;2022-09-09T06:28:57;14.70;99.90
55492;DHT22;41354;52.990;6.878;2022-09-09T06:31:27;14.80;99.90
55492;DHT22;41354;52.990;6.878;2022-09-09T06:33:56;14.80;99.90
55492;DHT22;41354;52.990;6.878;2022-09-09T06:36:27;14.90;99.90
55492;DHT22;41354;52.990;6.878;2022-09-09T06:38:54;15.00;99.90
55492;DHT22;41354;52.990;6.878;2022-09-09T06:41:22;15.10;99.90
55492;DHT22;41354;52.990;6.878;2022-09-09T06:43:48;15.20;99.90
55492;DHT22;41354;52.990;6.878;2022-09-09T06:46:19;15.30;99.90
55492;DHT22;41354;52.990;6.878;2022-09-09T06:48:45;15.40;99.90
55492;DHT22;41354;52.990;6.878;2022-09-09T06:51:18;15.50;99.90
55492;DHT22;41354;52.990;6.878;2022-09-09T06:53:45;15.60;99.90
55492;DHT22;41354;52.990;6.878;2022-09-09T06:58:43;15.70;99.90
55492;DHT22;41354;52.990;6.878;2022-09-09T07:01:14;15.80;99.90
55492;DHT22;41354;52.990;6.878;2022-09-09T07:03:40;15.80;99.90
55492;DHT22;41354;52.990;6.878;2022-09-09T07:08:39;16.00;99.90
55492;DHT22;41354;52.990;6.878;2022-09-09T07:11:08;16.00;99.90
55492;DHT22;41354;52.990;6.878;2022-09-09T07:13:35;16.10;99.90
55492;DHT22;41354;52.990;6.878;2022-09-09T07:16:05;16.10;99.90
55492;DHT22;41354;52.990;6.878;2022-09-09T07:18:31;16.30;99.90
55492;DHT22;41354;52.990;6.878;2022-09-09T07:20:57;16.30;99.90
55492;DHT22;41354;52.990;6.878;2022-09-09T07:23:23;16.40;99.90
55492;DHT22;41354;52.990;6.878;2022-09-09T07:25:49;16.50;99.90
55492;DHT22;41354;52.990;6.878;2022-09-09T07:28:16;16.60;99.90
55492;DHT22;41354;52.990;6.878;2022-09-09T07:30:42;16.70;99.90
55492;DHT22;41354;52.990;6.878;2022-09-09T07:33:08;16.70;99.90
55492;DHT22;41354;52.990;6.878;2022-09-09T07:35:35;16.80;99.90
55492;DHT22;41354;52.990;6.878;2022-09-09T07:38:02;16.80;99.90
55492;DHT22;41354;52.990;6.878;2022-09-09T07:40:32;16.80;99.90
55492;DHT22;41354;52.990;6.878;2022-09-09T07:42:59;16.90;99.90
55492;DHT22;41354;52.990;6.878;2022-09-09T07:45:27;16.90;99.90
55492;DHT22;41354;52.990;6.878;2022-09-09T07:47:54;17.00;99.90
55492;DHT22;41354;52.990;6.878;2022-09-09T07:50:22;17.30;99.90
55492;DHT22;41354;52.990;6.878;2022-09-09T07:52:49;17.70;99.90
55492;DHT22;41354;52.990;6.878;2022-09-09T07:55:14;18.00;99.90
55492;DHT22;41354;52.990;6.878;2022-09-09T07:57:40;18.20;99.90
55492;DHT22;41354;52.990;6.878;2022-09-09T08:00:06;18.30;99.90
55492;DHT22;41354;52.990;6.878;2022-09-09T08:02:32;18.40;99.90
55492;DHT22;41354;52.990;6.878;2022-09-09T08:04:57;18.70;99.90
55492;DHT22;41354;52.990;6.878;2022-09-09T08:07:23;19.00;99.90
55492;DHT22;41354;52.990;6.878;2022-09-09T08:09:49;19.30;99.90
55492;DHT22;41354;52.990;6.878;2022-09-09T08:12:15;19.40;99.90
55492;DHT22;41354;52.990;6.878;2022-09-09T08:14:41;19.50;99.90
55492;DHT22;41354;52.990;6.878;2022-09-09T08:17:07;19.70;99.90
55492;DHT22;41354;52.990;6.878;2022-09-09T08:19:33;19.70;99.90
55492;DHT22;41354;52.990;6.878;2022-09-09T08:22:01;19.70;99.90
55492;DHT22;41354;52.990;6.878;2022-09-09T08:24:28;19.70;99.90
55492;DHT22;41354;52.990;6.878;2022-09-09T08:26:53;19.80;99.90
55492;DHT22;41354;52.990;6.878;2022-09-09T08:29:19;20.00;99.90
55492;DHT22;41354;52.990;6.878;2022-09-09T08:34:12;20.40;99.90
55492;DHT22;41354;52.990;6.878;2022-09-09T08:36:40;20.50;99.90
55492;DHT22;41354;52.990;6.878;2022-09-09T08:39:09;20.70;99.90
55492;DHT22;41354;52.990;6.878;2022-09-09T08:42:00;20.80;99.90
55492;DHT22;41354;52.990;6.878;2022-09-09T08:50:18;21.70;99.90
55492;DHT22;41354;52.990;6.878;2022-09-09T08:55:58;22.50;99.90
55492;DHT22;41354;52.990;6.878;2022-09-09T09:04:07;22.20;99.90
55492;DHT22;41354;52.990;6.878;2022-09-09T09:06:47;22.00;99.90
55492;DHT22;41354;52.990;6.878;2022-09-09T09:09:26;22.00;99.90
55492;DHT22;41354;52.990;6.878;2022-09-09T09:12:00;22.00;99.90
55492;DHT22;41354;52.990;6.878;2022-09-09T09:14:33;21.90;99.90
55492;DHT22;41354;52.990;6.878;2022-09-09T09:17:06;21.80;99.90
55492;DHT22;41354;52.990;6.878;2022-09-09T09:19:35;21.60;99.90
55492;DHT22;41354;52.990;6.878;2022-09-09T09:22:10;21.30;99.90
55492;DHT22;41354;52.990;6.878;2022-09-09T09:30:26;20.90;99.90
55492;DHT22;41354;52.990;6.878;2022-09-09T09:35:32;20.80;99.90
55492;DHT22;41354;52.990;6.878;2022-09-09T09:37:57;20.80;99.90
55492;DHT22;41354;52.990;6.878;2022-09-09T09:40:26;20.80;99.90
55492;DHT22;41354;52.990;6.878;2022-09-09T09:42:54;20.70;99.90
55492;DHT22;41354;52.990;6.878;2022-09-09T09:45:42;20.70;99.90
55492;DHT22;41354;52.990;6.878;2022-09-09T09:48:12;20.80;99.90
55492;DHT22;41354;52.990;6.878;2022-09-09T09:50:59;20.90;99.90
55492;DHT22;41354;52.990;6.878;2022-09-09T09:53:28;21.00;99.90
55492;DHT22;41354;52.990;6.878;2022-09-09T09:56:01;21.10;99.90
55492;DHT22;41354;52.990;6.878;2022-09-09T09:58:30;21.40;99.90
55492;DHT22;41354;52.990;6.878;2022-09-09T10:00:57;21.70;99.90
55492;DHT22;41354;52.990;6.878;2022-09-09T10:03:33;22.00;99.90
55492;DHT22;41354;52.990;6.878;2022-09-09T10:06:04;22.30;99.90
55492;DHT22;41354;52.990;6.878;2022-09-09T10:08:34;22.70;99.90
55492;DHT22;41354;52.990;6.878;2022-09-09T10:11:24;22.80;99.90
55492;DHT22;41354;52.990;6.878;2022-09-09T10:14:11;22.70;99.90
55492;DHT22;41354;52.990;6.878;2022-09-09T10:19:33;22.40;99.90
55492;DHT22;41354;52.990;6.878;2022-09-09T10:22:30;22.70;99.90
55492;DHT22;41354;52.990;6.878;2022-09-09T10:25:20;23.00;99.90
55492;DHT22;41354;52.990;6.878;2022-09-09T10:36:13;23.60;99.90
55492;DHT22;41354;52.990;6.878;2022-09-09T10:38:45;23.60;99.90
55492;DHT22;41354;52.990;6.878;2022-09-09T10:41:42;23.70;99.90
55492;DHT22;41354;52.990;6.878;2022-09-09T10:47:50;23.30;99.90
55492;DHT22;41354;52.990;6.878;2022-09-09T10:50:47;23.00;99.90
55492;DHT22;41354;52.990;6.878;2022-09-09T10:53:28;22.80;99.90
55492;DHT22;41354;52.990;6.878;2022-09-09T10:56:02;23.00;99.90
55492;DHT22;41354;52.990;6.878;2022-09-09T10:58:38;23.50;99.90
55492;DHT22;41354;52.990;6.878;2022-09-09T11:01:17;24.00;99.90
55492;DHT22;41354;52.990;6.878;2022-09-09T11:03:49;24.00;99.90
55492;DHT22;41354;52.990;6.878;2022-09-09T11:06:20;23.60;99.90
55492;DHT22;41354;52.990;6.878;2022-09-09T11:08:46;23.20;99.90
55492;DHT22;41354;52.990;6.878;2022-09-09T11:14:02;22.80;99.90
55492;DHT22;41354;52.990;6.878;2022-09-09T11:16:34;23.10;99.90
55492;DHT22;41354;52.990;6.878;2022-09-09T11:21:52;23.80;99.90
55492;DHT22;41354;52.990;6.878;2022-09-09T11:24:23;23.60;99.90
55492;DHT22;41354;52.990;6.878;2022-09-09T11:26:55;23.30;99.90
55492;DHT22;41354;52.990;6.878;2022-09-09T11:37:53;22.90;99.90
55492;DHT22;41354;52.990;6.878;2022-09-09T11:40:26;23.10;99.90
55492;DHT22;41354;52.990;6.878;2022-09-09T11:43:04;23.40;99.90
55492;DHT22;41354;52.990;6.878;2022-09-09T11:45:31;23.50;99.90
55492;DHT22;41354;52.990;6.878;2022-09-09T11:48:00;23.50;99.90
55492;DHT22;41354;52.990;6.878;2022-09-09T11:50:33;23.40;99.90
55492;DHT22;41354;52.990;6.878;2022-09-09T11:53:20;23.40;99.90
55492;DHT22;41354;52.990;6.878;2022-09-09T11:55:48;23.40;99.90
55492;DHT22;41354;52.990;6.878;2022-09-09T11:58:27;23.40;99.90
55492;DHT22;41354;52.990;6.878;2022-09-09T12:00:58;23.20;99.90
55492;DHT22;41354;52.990;6.878;2022-09-09T12:09:27;22.90;99.90
55492;DHT22;41354;52.990;6.878;2022-09-09T12:14:42;23.40;99.90
55492;DHT22;41354;52.990;6.878;2022-09-09T12:17:23;23.60;99.90
55492;DHT22;41354;52.990;6.878;2022-09-09T12:28:14;23.10;99.90
55492;DHT22;41354;52.990;6.878;2022-09-09T12:30:49;23.20;99.90
55492;DHT22;41354;52.990;6.878;2022-09-09T12:33:19;23.70;99.90
55492;DHT22;41354;52.990;6.878;2022-09-09T12:35:49;24.50;99.90
55492;DHT22;41354;52.990;6.878;2022-09-09T12:38:30;25.20;99.90
55492;DHT22;41354;52.990;6.878;2022-09-09T12:40:58;25.90;99.90
55492;DHT22;41354;52.990;6.878;2022-09-09T12:43:26;26.00;99.90
55492;DHT22;41354;52.990;6.878;2022-09-09T12:45:56;25.80;99.90
55492;DHT22;41354;52.990;6.878;2022-09-09T12:48:44;25.90;99.90
55492;DHT22;41354;52.990;6.878;2022-09-09T12:51:21;26.10;99.90
55492;DHT22;41354;52.990;6.878;2022-09-09T12:53:50;26.30;99.90
55492;DHT22;41354;52.990;6.878;2022-09-09T12:56:21;26.30;99.90
55492;DHT22;41354;52.990;6.878;2022-09-09T12:58:50;26.10;99.90
55492;DHT22;41354;52.990;6.878;2022-09-09T13:01:30;26.10;99.90
55492;DHT22;41354;52.990;6.878;2022-09-09T13:03:56;26.20;99.90
55492;DHT22;41354;52.990;6.878;2022-09-09T13:06:30;26.60;99.90
55492;DHT22;41354;52.990;6.878;2022-09-09T13:09:00;26.90;99.90
55492;DHT22;41354;52.990;6.878;2022-09-09T13:11:35;26.70;98.50
55492;DHT22;41354;52.990;6.878;2022-09-09T13:14:02;26.10;99.10
55492;DHT22;41354;52.990;6.878;2022-09-09T13:16:30;25.50;99.90
55492;DHT22;41354;52.990;6.878;2022-09-09T13:19:08;25.20;99.90
55492;DHT22;41354;52.990;6.878;2022-09-09T13:21:36;25.00;99.90
55492;DHT22;41354;52.990;6.878;2022-09-09T13:24:04;25.00;99.90
55492;DHT22;41354;52.990;6.878;2022-09-09T13:26:33;25.00;99.90
55492;DHT22;41354;52.990;6.878;2022-09-09T13:29:17;24.80;99.90
55492;DHT22;41354;52.990;6.878;2022-09-09T13:31:45;24.40;99.90
55492;DHT22;41354;52.990;6.878;2022-09-09T13:34:13;23.90;99.90
55492;DHT22;41354;52.990;6.878;2022-09-09T13:36:39;23.50;99.90
55492;DHT22;41354;52.990;6.878;2022-09-09T13:39:16;23.10;99.90
55492;DHT22;41354;52.990;6.878;2022-09-09T13:41:46;22.70;99.90
55492;DHT22;41354;52.990;6.878;2022-09-09T13:44:29;22.30;99.90
55492;DHT22;41354;52.990;6.878;2022-09-09T13:49:30;21.70;99.90
55492;DHT22;41354;52.990;6.878;2022-09-09T13:54:39;21.40;99.90
55492;DHT22;41354;52.990;6.878;2022-09-09T13:57:05;21.20;99.90
55492;DHT22;41354;52.990;6.878;2022-09-09T13:59:39;21.30;99.90
55492;DHT22;41354;52.990;6.878;2022-09-09T14:02:04;21.50;99.90
55492;DHT22;41354;52.990;6.878;2022-09-09T14:04:30;21.70;99.90
55492;DHT22;41354;52.990;6.878;2022-09-09T14:06:56;22.00;99.90
55492;DHT22;41354;52.990;6.878;2022-09-09T14:09:21;22.20;99.90
55492;DHT22;41354;52.990;6.878;2022-09-09T14:11:47;22.10;99.90
55492;DHT22;41354;52.990;6.878;2022-09-09T14:14:12;21.90;99.90
55492;DHT22;41354;52.990;6.878;2022-09-09T14:16:38;21.60;99.90
55492;DHT22;41354;52.990;6.878;2022-09-09T14:19:04;21.40;99.90
55492;DHT22;41354;52.990;6.878;2022-09-09T14:21:29;21.10;99.90
55492;DHT22;41354;52.990;6.878;2022-09-09T14:23:55;21.00;99.90
55492;DHT22;41354;52.990;6.878;2022-09-09T14:26:24;20.80;99.90
55492;DHT22;41354;52.990;6.878;2022-09-09T14:28:52;20.70;99.90
55492;DHT22;41354;52.990;6.878;2022-09-09T14:31:18;20.70;99.90
55492;DHT22;41354;52.990;6.878;2022-09-09T14:33:44;20.80;99.90
55492;DHT22;41354;52.990;6.878;2022-09-09T14:36:10;20.90;99.90
55492;DHT22;41354;52.990;6.878;2022-09-09T14:38:37;21.10;99.90
55492;DHT22;41354;52.990;6.878;2022-09-09T14:41:05;21.20;99.90
55492;DHT22;41354;52.990;6.878;2022-09-09T14:43:31;21.00;99.90
55492;DHT22;41354;52.990;6.878;2022-09-09T14:46:07;20.70;99.90
55492;DHT22;41354;52.990;6.878;2022-09-09T14:48:34;20.30;99.90
55492;DHT22;41354;52.990;6.878;2022-09-09T14:51:29;19.90;99.90
55492;DHT22;41354;52.990;6.878;2022-09-09T14:53:58;19.50;99.90
55492;DHT22;41354;52.990;6.878;2022-09-09T14:56:29;19.10;99.90
55492;DHT22;41354;52.990;6.878;2022-09-09T14:58:57;18.90;99.90
55492;DHT22;41354;52.990;6.878;2022-09-09T15:01:24;18.80;99.90
55492;DHT22;41354;52.990;6.878;2022-09-09T15:03:55;18.70;99.90
55492;DHT22;41354;52.990;6.878;2022-09-09T15:06:22;18.60;99.90
55492;DHT22;41354;52.990;6.878;2022-09-09T15:08:50;18.60;99.90
55492;DHT22;41354;52.990;6.878;2022-09-09T15:11:17;18.60;99.90
55492;DHT22;41354;52.990;6.878;2022-09-09T15:13:43;18.70;99.90
55492;DHT22;41354;52.990;6.878;2022-09-09T15:16:15;18.80;99.90
55492;DHT22;41354;52.990;6.878;2022-09-09T15:18:41;19.30;99.90
55492;DHT22;41354;52.990;6.878;2022-09-09T15:21:16;20.40;99.90
55492;DHT22;41354;52.990;6.878;2022-09-09T15:23:42;21.50;99.90
55492;DHT22;41354;52.990;6.878;2022-09-09T15:26:09;22.40;99.90
55492;DHT22;41354;52.990;6.878;2022-09-09T15:28:36;23.40;99.90
55492;DHT22;41354;52.990;6.878;2022-09-09T15:31:06;24.10;99.90
55492;DHT22;41354;52.990;6.878;2022-09-09T15:33:33;24.70;99.90
55492;DHT22;41354;52.990;6.878;2022-09-09T15:35:59;25.00;99.90
55492;DHT22;41354;52.990;6.878;2022-09-09T15:38:25;25.20;99.90
55492;DHT22;41354;52.990;6.878;2022-09-09T15:40:54;25.40;99.90
55492;DHT22;41354;52.990;6.878;2022-09-09T15:43:23;25.50;99.90
55492;DHT22;41354;52.990;6.878;2022-09-09T15:45:54;25.40;99.90
55492;DHT22;41354;52.990;6.878;2022-09-09T15:48:30;25.40;99.90
55492;DHT22;41354;52.990;6.878;2022-09-09T15:51:04;25.60;99.90
55492;DHT22;41354;52.990;6.878;2022-09-09T15:53:30;25.40;99.90
55492;DHT22;41354;52.990;6.878;2022-09-09T15:55:58;24.80;99.90
55492;DHT22;41354;52.990;6.878;2022-09-09T15:58:23;24.40;99.90
55492;DHT22;41354;52.990;6.878;2022-09-09T16:00:49;24.20;99.90
55492;DHT22;41354;52.990;6.878;2022-09-09T16:03:14;24.20;99.90
55492;DHT22;41354;52.990;6.878;2022-09-09T16:05:40;24.20;99.90
55492;DHT22;41354;52.990;6.878;2022-09-09T16:08:06;24.40;99.90
55492;DHT22;41354;52.990;6.878;2022-09-09T16:10:32;24.60;99.90
55492;DHT22;41354;52.990;6.878;2022-09-09T16:12:57;24.80;99.90
55492;DHT22;41354;52.990;6.878;2022-09-09T16:15:24;24.70;99.90
55492;DHT22;41354;52.990;6.878;2022-09-09T16:17:53;24.50;99.90
55492;DHT22;41354;52.990;6.878;2022-09-09T16:20:19;24.10;99.90
55492;DHT22;41354;52.990;6.878;2022-09-09T16:22:45;23.40;99.90
55492;DHT22;41354;52.990;6.878;2022-09-09T16:25:11;22.60;99.90
55492;DHT22;41354;52.990;6.878;2022-09-09T16:27:36;21.90;99.90
55492;DHT22;41354;52.990;6.878;2022-09-09T16:30:02;21.30;99.90
55492;DHT22;41354;52.990;6.878;2022-09-09T16:32:28;20.70;99.90
55492;DHT22;41354;52.990;6.878;2022-09-09T16:34:54;20.40;99.90
55492;DHT22;41354;52.990;6.878;2022-09-09T16:37:19;20.10;99.90
55492;DHT22;41354;52.990;6.878;2022-09-09T16:39:45;19.90;99.90
55492;DHT22;41354;52.990;6.878;2022-09-09T16:42:11;19.60;99.90
55492;DHT22;41354;52.990;6.878;2022-09-09T16:44:36;19.40;99.90
55492;DHT22;41354;52.990;6.878;2022-09-09T16:47:02;19.20;99.90
55492;DHT22;41354;52.990;6.878;2022-09-09T16:49:28;19.00;99.90
55492;DHT22;41354;52.990;6.878;2022-09-09T16:51:56;18.90;99.90
55492;DHT22;41354;52.990;6.878;2022-09-09T16:54:22;18.80;99.90
55492;DHT22;41354;52.990;6.878;2022-09-09T16:56:50;18.70;99.90
55492;DHT22;41354;52.990;6.878;2022-09-09T16:59:18;18.60;99.90
55492;DHT22;41354;52.990;6.878;2022-09-09T17:01:45;18.80;99.90
55492;DHT22;41354;52.990;6.878;2022-09-09T17:04:13;19.40;99.90
55492;DHT22;41354;52.990;6.878;2022-09-09T17:06:40;19.90;99.90
55492;DHT22;41354;52.990;6.878;2022-09-09T17:09:10;20.40;99.90
55492;DHT22;41354;52.990;6.878;2022-09-09T17:11:37;20.70;99.90
55492;DHT22;41354;52.990;6.878;2022-09-09T17:14:04;20.70;99.90
55492;DHT22;41354;52.990;6.878;2022-09-09T17:16:31;20.40;99.90
55492;DHT22;41354;52.990;6.878;2022-09-09T17:18:59;20.00;99.90
55492;DHT22;41354;52.990;6.878;2022-09-09T17:21:27;19.70;99.90
55492;DHT22;41354;52.990;6.878;2022-09-09T17:23:54;19.40;99.90
55492;DHT22;41354;52.990;6.878;2022-09-09T17:26:22;19.20;99.90
55492;DHT22;41354;52.990;6.878;2022-09-09T17:28:48;18.90;99.90
55492;DHT22;41354;52.990;6.878;2022-09-09T17:31:16;18.80;99.90
55492;DHT22;41354;52.990;6.878;2022-09-09T17:33:45;18.60;99.90
55492;DHT22;41354;52.990;6.878;2022-09-09T17:36:23;18.50;99.90
55492;DHT22;41354;52.990;6.878;2022-09-09T17:38:50;18.30;99.90
55492;DHT22;41354;52.990;6.878;2022-09-09T17:43:43;18.10;99.90
55492;DHT22;41354;52.990;6.878;2022-09-09T17:46:14;18.00;99.90